Appleby-in-Westmorland, United Kingdom
Current Conditions -  °F | °C
As of 4:50 PM on Thursday 27 Nov 2014 (Local Time) from EGNC Reporting Station
Broken Clouds Broken Clouds  
Wind Chill: 46°   Ceiling: 2000
Heat Index: 46°   Visibility: 6mi
Dew Point: 46°   Wind: 3mph
Humidity: 100%   Direction: 60°ENE
Pressure: 29.56"   Gusts: NA
Location:  54.58°N, 2.5°W
Report Text: EGNC 271650Z 06003KT 9999 SCT017 BKN020 08/08 Q1001
Loading
Personal Weather Stations






























Interactive Weather Map New forecast layout! Learn more

10-Day Weather Forecast

Advertisements
Track Severe Weather on mobile